createdAt,value
2019-04-06T00:00:51.266Z,64
2019-04-06T00:05:51.239Z,58
2019-04-06T00:10:51.264Z,61
2019-04-06T00:15:51.219Z,61
2019-04-06T00:20:51.268Z,57
2019-04-06T00:25:51.196Z,58
2019-04-06T00:30:51.254Z,56
2019-04-06T00:44:17.095Z,56
2019-04-06T00:49:17.100Z,56
2019-04-06T00:54:17.376Z,60
2019-04-06T00:59:17.066Z,58
2019-04-06T01:04:17.097Z,54
2019-04-06T01:09:17.115Z,54
2019-04-06T01:14:17.167Z,54
2019-04-06T01:19:17.101Z,56
2019-04-06T01:24:17.030Z,52
2019-04-06T01:29:17.061Z,53
2019-04-06T01:34:17.056Z,50
2019-04-06T01:39:17.034Z,55
2019-04-06T01:44:17.049Z,52
2019-04-06T01:49:17.035Z,56
2019-04-06T01:54:17.027Z,50
2019-04-06T01:59:17.007Z,49
2019-04-06T02:04:17.048Z,52
2019-04-06T02:09:17.039Z,53
2019-04-06T02:14:17.004Z,55
2019-04-06T02:19:17.009Z,60
2019-04-06T02:24:17.015Z,56
2019-04-06T02:29:17.022Z,55
2019-04-06T02:34:27.578Z,53
2019-04-06T02:39:17.004Z,53
2019-04-06T02:44:17.192Z,62
2019-04-06T02:49:16.953Z,62
2019-04-06T02:54:16.991Z,59
2019-04-06T02:59:16.972Z,60
2019-04-06T03:04:16.949Z,57
2019-04-06T03:09:16.980Z,58
2019-04-06T03:14:17.028Z,58
2019-04-06T03:19:16.938Z,58
2019-04-06T03:24:17.198Z,59
2019-04-06T03:29:16.970Z,59
2019-04-06T03:34:22.874Z,58
2019-04-06T03:39:17.078Z,60
2019-04-06T03:44:16.936Z,60
2019-04-06T03:49:16.976Z,59
2019-04-06T03:54:16.905Z,64
2019-04-06T03:59:16.874Z,61
2019-04-06T04:04:16.939Z,66
2019-04-06T04:09:16.859Z,63
2019-04-06T04:14:16.865Z,65
2019-04-06T04:19:16.868Z,63
2019-04-06T04:24:16.866Z,66
2019-04-06T04:29:16.924Z,68
2019-04-06T04:34:16.934Z,66
2019-04-06T04:39:16.839Z,70
2019-04-06T04:44:16.921Z,69
2019-04-06T04:49:16.842Z,66
2019-04-06T04:54:16.833Z,66
2019-04-06T04:59:16.833Z,67
2019-04-06T05:04:16.825Z,68
2019-04-06T05:09:16.815Z,66
2019-04-06T05:14:16.926Z,67
2019-04-06T05:19:16.824Z,65
2019-04-06T05:24:16.791Z,63
2019-04-06T05:29:16.825Z,63
2019-04-06T05:34:16.957Z,65
2019-04-06T05:39:18.628Z,63
2019-04-06T05:44:16.839Z,63
2019-04-06T05:49:16.827Z,60
2019-04-06T05:54:16.804Z,63
2019-04-06T05:59:16.797Z,61
2019-04-06T06:04:16.759Z,63
2019-04-06T06:09:16.756Z,77
2019-04-06T06:14:16.807Z,64
2019-04-06T06:19:16.764Z,61
2019-04-06T06:24:16.776Z,55
2019-04-06T06:29:16.921Z,55
2019-04-06T06:34:16.709Z,52
2019-04-06T06:39:16.710Z,53
2019-04-06T06:44:16.762Z,57
2019-04-06T06:49:16.747Z,51
2019-04-06T06:54:16.721Z,50
2019-04-06T06:59:16.738Z,52
2019-04-06T07:04:16.688Z,50
2019-04-06T07:09:16.701Z,49
2019-04-06T07:14:16.822Z,48
2019-04-06T07:19:16.706Z,47
2019-04-06T07:24:16.699Z,45
2019-04-06T07:29:16.975Z,48
2019-04-06T07:34:16.681Z,44
2019-04-06T07:39:16.902Z,41
2019-04-06T07:44:16.680Z,37
2019-04-06T07:49:16.986Z,37
2019-04-06T07:54:16.626Z,34
2019-04-06T07:59:16.680Z,30
2019-04-06T08:04:16.858Z,35
2019-04-06T08:09:16.847Z,37
2019-04-06T08:14:16.669Z,33
2019-04-06T08:19:16.595Z,30
2019-04-06T08:24:16.649Z,32
2019-04-06T08:29:16.908Z,33
2019-04-06T08:34:16.843Z,30
2019-04-06T08:39:16.862Z,28
2019-04-06T08:44:16.841Z,31
2019-04-06T08:49:16.836Z,27
2019-04-06T08:54:16.608Z,29
2019-04-06T08:59:16.606Z,27
2019-04-06T09:04:16.741Z,29
2019-04-06T09:09:16.581Z,33
2019-04-06T09:14:16.588Z,30
2019-04-06T09:19:16.568Z,31
2019-04-06T09:24:16.738Z,26
2019-04-06T09:29:25.050Z,24
2019-04-06T09:34:16.540Z,25
2019-04-06T09:39:17.870Z,27
2019-04-06T09:44:16.587Z,24
2019-04-06T09:49:16.524Z,22
2019-04-06T09:54:16.555Z,24
2019-04-06T09:59:16.508Z,24
2019-04-06T10:04:16.590Z,27
2019-04-06T10:09:16.504Z,25
2019-04-06T10:14:16.537Z,28
2019-04-06T10:19:16.550Z,28
2019-04-06T10:24:16.544Z,29
2019-04-06T10:29:16.490Z,27
2019-04-06T10:34:16.540Z,26
2019-04-06T10:39:16.495Z,29
2019-04-06T10:44:16.466Z,27
2019-04-06T10:49:16.488Z,27
2019-04-06T11:11:28.342Z,23
2019-04-06T11:16:28.188Z,24
2019-04-06T11:21:28.192Z,24
2019-04-06T11:26:28.166Z,22
2019-04-06T11:31:28.173Z,26
2019-04-06T11:36:28.125Z,23
2019-04-06T11:41:28.161Z,26
2019-04-06T11:46:28.199Z,26
2019-04-06T11:51:28.160Z,26
2019-04-06T11:56:28.151Z,23
2019-04-06T12:01:28.145Z,23
2019-04-06T12:06:28.148Z,25
2019-04-06T12:11:28.210Z,29
2019-04-06T12:16:28.152Z,29
2019-04-06T12:21:28.340Z,25
2019-04-06T12:26:28.111Z,25
2019-04-06T12:31:28.110Z,26
2019-04-06T12:36:28.834Z,25
2019-04-06T12:41:28.228Z,28
2019-04-06T12:46:28.170Z,28
2019-04-06T12:51:28.389Z,27
2019-04-06T12:56:28.086Z,26
2019-04-06T13:01:28.102Z,31
2019-04-06T13:06:28.064Z,31
2019-04-06T13:11:28.282Z,30
2019-04-06T13:16:28.227Z,31
2019-04-06T13:21:28.115Z,29
2019-04-06T13:26:28.098Z,29
2019-04-06T13:31:28.047Z,33
2019-04-06T13:36:28.268Z,31
2019-04-06T13:41:28.102Z,30
2019-04-06T13:46:28.272Z,26
2019-04-06T13:51:28.025Z,30
2019-04-06T13:56:28.087Z,30
2019-04-06T14:06:28.036Z,30
2019-04-06T14:11:42.403Z,29
2019-04-06T14:16:42.431Z,30
2019-04-06T14:21:42.396Z,29
2019-04-06T14:26:42.393Z,28
2019-04-06T14:31:42.346Z,29
2019-04-06T14:36:42.698Z,28
2019-04-06T14:41:42.407Z,27
2019-04-06T16:25:36.488Z,33
2019-04-06T16:30:36.884Z,31
2019-04-06T16:35:36.418Z,35
2019-04-06T16:40:36.458Z,38
2019-04-06T16:45:36.853Z,33
2019-04-06T16:50:36.388Z,34
2019-04-06T16:55:36.423Z,35
2019-04-06T17:00:36.754Z,36
2019-04-06T17:05:36.382Z,41
2019-04-06T17:10:37.147Z,40
2019-04-06T17:15:36.488Z,36
2019-04-06T17:20:36.887Z,43
2019-04-06T17:25:36.370Z,42
2019-04-06T17:30:36.371Z,40
2019-04-06T17:35:36.510Z,41
2019-04-06T17:40:36.450Z,48
2019-04-06T17:45:36.348Z,51
2019-04-06T17:50:36.573Z,52
2019-04-06T17:55:36.331Z,51
2019-04-06T18:00:36.344Z,53
2019-04-06T18:05:36.311Z,51
2019-04-06T18:10:36.356Z,54
2019-04-06T18:15:36.350Z,53
2019-04-06T18:20:36.322Z,56
2019-04-06T18:25:36.294Z,50
2019-04-06T18:30:36.326Z,54
2019-04-06T18:35:36.313Z,55
2019-04-06T18:40:36.289Z,55
2019-04-06T18:45:36.291Z,53
2019-04-06T18:50:39.234Z,58
2019-04-06T19:02:36.051Z,59
2019-04-06T19:07:35.457Z,61
2019-04-06T19:12:35.417Z,61
2019-04-06T19:17:35.398Z,61
2019-04-06T19:22:35.329Z,61
2019-04-06T19:27:35.431Z,62
2019-04-06T19:32:35.579Z,62
2019-04-06T19:37:35.291Z,65
2019-04-06T19:42:35.311Z,66
2019-04-06T19:47:35.906Z,68
2019-04-06T19:52:35.935Z,67
2019-04-06T19:57:35.295Z,68
2019-04-06T20:02:35.364Z,66
2019-04-06T20:07:35.628Z,66
2019-04-06T20:12:36.221Z,65
2019-04-06T20:17:35.608Z,64
2019-04-06T20:22:35.413Z,63
2019-04-06T20:27:35.431Z,62
2019-04-06T20:32:35.707Z,60
2019-04-06T20:37:35.953Z,66
2019-04-06T20:42:35.766Z,62
2019-04-06T20:47:35.420Z,64
2019-04-06T20:52:35.213Z,67
2019-04-06T20:57:35.251Z,64
2019-04-06T21:02:35.248Z,65
2019-04-06T21:07:35.316Z,66
2019-04-06T21:12:35.299Z,65
2019-04-06T21:17:37.133Z,63
2019-04-06T21:22:35.316Z,64
2019-04-06T21:27:35.268Z,67
2019-04-06T21:32:35.234Z,63
2019-04-06T21:37:35.957Z,63
2019-04-06T21:42:35.680Z,61
2019-04-06T21:47:35.438Z,59
2019-04-06T21:52:35.367Z,62
2019-04-06T21:57:35.649Z,61
2019-04-06T22:02:35.580Z,57
2019-04-06T22:07:53.617Z,61
2019-04-06T22:12:35.179Z,58
2019-04-06T22:17:36.059Z,61
2019-04-06T22:22:35.629Z,57
2019-04-06T22:27:35.178Z,55
2019-04-06T22:32:35.755Z,53
2019-04-06T22:37:35.104Z,56
2019-04-06T22:42:35.380Z,57
2019-04-06T22:47:35.130Z,58
2019-04-06T22:52:35.424Z,55
2019-04-06T22:57:35.106Z,56
2019-04-06T23:02:35.110Z,53
2019-04-06T23:07:35.109Z,55
2019-04-06T23:12:35.128Z,54
2019-04-06T23:17:35.095Z,50
2019-04-06T23:22:35.574Z,51
2019-04-06T23:27:35.443Z,52
2019-04-06T23:32:35.111Z,48
2019-04-06T23:37:35.591Z,51
2019-04-06T23:42:35.464Z,50
2019-04-06T23:47:35.227Z,50
2019-04-06T23:52:35.533Z,49
2019-04-06T23:57:35.105Z,52
